Time;durP1;ratioP1;P1;durP2;ratioP2;P2;SDS_P1;SDS_P2;PMS_P1;PMS_P2;Temp;Humidity;BMP_temperature;BMP_pressure;BME280_temperature;BME280_humidity;BME280_pressure;Samples;Min_cycle;Max_cycle;Signal;HPM_P1;HPM_P2
2022/11/21 00:00:45;;;;;;;0.10;0.10;;;;;;;;;;5032151;28;20488;-71
2022/11/21 00:03:11;;;;;;;0.10;0.10;;;;;;;;;;5032272;28;20033;-71
2022/11/21 00:05:41;;;;;;;0.30;0.30;;;;;;;;;;5032003;28;20030;-71
2022/11/21 00:08:07;;;;;;;0.10;0.10;;;;;;;;;;5046725;28;20033;-71
2022/11/21 00:10:34;;;;;;;0.10;0.10;;;;;;;;;;5032343;28;20116;-71
2022/11/21 00:13:00;;;;;;;0.10;0.10;;;;;;;;;;5047225;28;20033;-71
2022/11/21 00:15:26;;;;;;;0.10;0.10;;;;;;;;;;5032493;28;20035;-72
2022/11/21 00:17:52;;;;;;;0.22;0.22;;;;;;;;;;5031934;28;20025;-71
2022/11/21 00:20:18;;;;;;;0.10;0.10;;;;;;;;;;5031182;28;20025;-72
2022/11/21 00:22:45;;;;;;;0.10;0.10;;;;;;;;;;5047376;28;20045;-71
2022/11/21 00:25:11;;;;;;;0.10;0.10;;;;;;;;;;5031599;28;20032;-72
2022/11/21 00:27:37;;;;;;;0.10;0.10;;;;;;;;;;5031608;28;20108;-72
2022/11/21 00:30:03;;;;;;;0.10;0.10;;;;;;;;;;5031690;28;20029;-72
2022/11/21 00:32:29;;;;;;;0.10;0.10;;;;;;;;;;5047298;28;20025;-72
2022/11/21 00:34:55;;;;;;;0.63;0.63;;;;;;;;;;5031782;28;20465;-72
2022/11/21 00:37:20;;;;;;;0.55;0.52;;;;;;;;;;5031527;28;20520;-72
2022/11/21 00:39:46;;;;;;;0.20;0.20;;;;;;;;;;5030804;28;20037;-72
2022/11/21 00:42:11;;;;;;;0.30;0.20;;;;;;;;;;5031033;28;20060;-73
2022/11/21 00:44:37;;;;;;;0.10;0.10;;;;;;;;;;5031662;28;20041;-72
2022/11/21 00:47:03;;;;;;;0.20;0.13;;;;;;;;;;5031357;28;20021;-72
2022/11/21 00:49:29;;;;;;;0.10;0.10;;;;;;;;;;5030926;28;20018;-72
2022/11/21 00:51:54;;;;;;;0.80;0.63;;;;;;;;;;5031224;28;20029;-72
2022/11/21 00:54:20;;;;;;;0.17;0.17;;;;;;;;;;5031748;28;20033;-72
2022/11/21 00:56:46;;;;;;;0.10;0.10;;;;;;;;;;5031005;28;20021;-72
2022/11/21 00:59:12;;;;;;;2.35;1.00;;;;;;;;;;5046777;28;20030;-72
2022/11/21 01:01:38;;;;;;;0.25;0.25;;;;;;;;;;5031100;28;20080;-71
2022/11/21 01:04:04;;;;;;;0.60;0.60;;;;;;;;;;5031318;28;20469;-73
2022/11/21 01:06:30;;;;;;;1.90;0.90;;;;;;;;;;5030477;28;20045;-72
2022/11/21 01:08:56;;;;;;;0.95;0.65;;;;;;;;;;5030825;28;20068;-71
2022/11/21 01:11:22;;;;;;;0.55;0.55;;;;;;;;;;5030810;28;20029;-71
2022/11/21 01:13:48;;;;;;;1.45;0.65;;;;;;;;;;5046043;28;20397;-72
2022/11/21 01:16:18;;;;;;;0.73;0.50;;;;;;;;;;5030642;28;20496;-72
2022/11/21 01:18:43;;;;;;;;;;;;;;;;;;5030616;28;20014;-72
2022/11/21 01:21:12;;;;;;;0.40;0.40;;;;;;;;;;5029872;28;19932;-72
2022/11/21 01:23:38;;;;;;;0.10;0.10;;;;;;;;;;5030598;28;20107;-72
2022/11/21 01:26:04;;;;;;;0.28;0.28;;;;;;;;;;5045870;28;20120;-72
2022/11/21 01:28:30;;;;;;;0.52;0.32;;;;;;;;;;5046113;28;20381;-73
2022/11/21 01:31:06;;;;;;;0.22;0.22;;;;;;;;;;5030452;28;20888;-73
2022/11/21 01:33:32;;;;;;;0.10;0.10;;;;;;;;;;5031113;28;20334;-73
2022/11/21 01:36:04;;;;;;;0.10;0.10;;;;;;;;;;5030357;28;20087;-72
2022/11/21 01:38:32;;;;;;;0.10;0.10;;;;;;;;;;5030224;28;20022;-72
2022/11/21 01:40:57;;;;;;;0.08;0.08;;;;;;;;;;5030222;28;20102;-72
2022/11/21 01:43:25;;;;;;;0.10;0.10;;;;;;;;;;5045480;28;20489;-72
2022/11/21 01:45:55;;;;;;;0.17;0.17;;;;;;;;;;5030521;28;20025;-73
2022/11/21 01:48:44;;;;;;;0.20;0.20;;;;;;;;;;5029317;28;20048;-74
2022/11/21 01:51:15;;;;;;;4.27;0.40;;;;;;;;;;5016766;28;20095;-73
2022/11/21 01:53:44;;;;;;;2.03;1.05;;;;;;;;;;5030125;28;20666;-74
2022/11/21 01:56:10;;;;;;;1.15;0.75;;;;;;;;;;5030229;28;20091;-72
2022/11/21 01:58:37;;;;;;;0.65;0.45;;;;;;;;;;5030448;28;20045;-71
2022/11/21 02:01:03;;;;;;;0.40;0.30;;;;;;;;;;5029988;28;20029;-71
2022/11/21 02:03:31;;;;;;;0.30;0.30;;;;;;;;;;5028903;28;20087;-72
2022/11/21 02:05:57;;;;;;;0.10;0.10;;;;;;;;;;5044370;28;20049;-71
2022/11/21 02:08:24;;;;;;;2.17;1.33;;;;;;;;;;5029930;28;20048;-72
2022/11/21 02:11:08;;;;;;;1.23;0.88;;;;;;;;;;5045415;28;20034;-72
2022/11/21 02:13:33;;;;;;;0.80;0.47;;;;;;;;;;5030029;28;20025;-71
2022/11/21 02:15:59;;;;;;;1.08;0.70;;;;;;;;;;5029971;28;20343;-72
2022/11/21 02:18:25;;;;;;;1.40;0.80;;;;;;;;;;5029557;28;20033;-72
2022/11/21 02:20:52;;;;;;;1.45;0.60;;;;;;;;;;5029893;28;20044;-72
2022/11/21 02:23:18;;;;;;;0.47;0.40;;;;;;;;;;5044894;28;20045;-72
2022/11/21 02:25:44;;;;;;;2.15;0.75;;;;;;;;;;5029635;28;20035;-72
2022/11/21 02:28:11;;;;;;;0.15;0.15;;;;;;;;;;5029763;28;20029;-72
2022/11/21 02:30:39;;;;;;;0.47;0.35;;;;;;;;;;5029757;28;20014;-73
2022/11/21 02:33:05;;;;;;;0.80;0.57;;;;;;;;;;5030024;28;20041;-71
2022/11/21 02:35:32;;;;;;;0.50;0.50;;;;;;;;;;5029513;28;20133;-71
2022/11/21 02:38:09;;;;;;;0.10;0.10;;;;;;;;;;5028465;28;20026;-71
2022/11/21 02:40:36;;;;;;;0.40;0.40;;;;;;;;;;5029664;28;20036;-71
2022/11/21 02:43:09;;;;;;;0.10;0.10;;;;;;;;;;5045067;28;20045;-71
2022/11/21 02:45:37;;;;;;;0.10;0.10;;;;;;;;;;5029404;28;20029;-72
2022/11/21 02:48:03;;;;;;;0.10;0.10;;;;;;;;;;5028777;28;20030;-72
2022/11/21 02:50:33;;;;;;;0.10;0.10;;;;;;;;;;5043737;28;20033;-71
2022/11/21 02:52:59;;;;;;;;;;;;;;;;;;5029670;28;20034;-71
2022/11/21 02:55:25;;;;;;;0.30;0.30;;;;;;;;;;5029918;28;20222;-71
2022/11/21 02:57:51;;;;;;;0.10;0.10;;;;;;;;;;5044729;28;20034;-72
2022/11/21 03:00:17;;;;;;;0.10;0.10;;;;;;;;;;5045938;28;20056;-71
2022/11/21 03:02:44;;;;;;;0.10;0.10;;;;;;;;;;5033511;28;20063;-71
2022/11/21 03:05:12;;;;;;;0.20;0.20;;;;;;;;;;5033376;28;20030;-72
2022/11/21 03:07:38;;;;;;;0.10;0.10;;;;;;;;;;5032941;28;20049;-72
2022/11/21 03:10:04;;;;;;;0.20;0.20;;;;;;;;;;5032408;28;20036;-72
2022/11/21 03:12:30;;;;;;;0.10;0.10;;;;;;;;;;5048223;28;20040;-72
2022/11/21 03:14:56;;;;;;;0.10;0.10;;;;;;;;;;5033221;28;20029;-71
2022/11/21 03:17:22;;;;;;;0.10;0.10;;;;;;;;;;5033374;28;20029;-71
2022/11/21 03:19:49;;;;;;;0.10;0.10;;;;;;;;;;5033321;28;20029;-72
2022/11/21 03:22:15;;;;;;;0.08;0.08;;;;;;;;;;5032176;28;20025;-72
2022/11/21 03:24:41;;;;;;;0.10;0.10;;;;;;;;;;5032698;28;20025;-72
2022/11/21 03:27:07;;;;;;;0.52;0.52;;;;;;;;;;5047961;28;20144;-73
2022/11/21 03:29:32;;;;;;;0.10;0.10;;;;;;;;;;5033126;28;20108;-72
2022/11/21 03:31:58;;;;;;;0.10;0.10;;;;;;;;;;5031725;28;20044;-72
2022/11/21 03:34:24;;;;;;;0.55;0.55;;;;;;;;;;5032590;28;20355;-71
2022/11/21 03:36:51;;;;;;;0.10;0.10;;;;;;;;;;5031933;28;20028;-71
2022/11/21 03:39:16;;;;;;;0.40;0.40;;;;;;;;;;5032590;28;20029;-71
2022/11/21 03:41:42;;;;;;;0.10;0.10;;;;;;;;;;5032701;28;20477;-70
2022/11/21 03:44:11;;;;;;;0.10;0.10;;;;;;;;;;5032132;28;20044;-72
2022/11/21 03:46:38;;;;;;;0.98;0.98;;;;;;;;;;5032969;28;20069;-72
2022/11/21 03:49:04;;;;;;;0.15;0.15;;;;;;;;;;5032376;28;20034;-72
2022/11/21 03:51:30;;;;;;;0.10;0.10;;;;;;;;;;5031802;28;20030;-72
2022/11/21 03:53:57;;;;;;;0.20;0.20;;;;;;;;;;5032357;28;20477;-72
2022/11/21 03:56:23;;;;;;;0.10;0.10;;;;;;;;;;5032286;28;20052;-71
2022/11/21 03:58:49;;;;;;;0.10;0.10;;;;;;;;;;5032228;28;20044;-72
2022/11/21 04:01:16;;;;;;;0.10;0.10;;;;;;;;;;5032459;28;20056;-72
2022/11/21 04:03:42;;;;;;;0.10;0.10;;;;;;;;;;5031223;28;20041;-73
2022/11/21 04:06:08;;;;;;;0.10;0.10;;;;;;;;;;5032091;28;20057;-71
2022/11/21 04:08:34;;;;;;;0.10;0.10;;;;;;;;;;5032164;28;20025;-72
2022/11/21 04:11:00;;;;;;;0.10;0.10;;;;;;;;;;5031279;28;20033;-72
2022/11/21 04:13:26;;;;;;;0.10;0.10;;;;;;;;;;5031201;28;20032;-71
2022/11/21 04:15:52;;;;;;;0.10;0.10;;;;;;;;;;5032225;28;20029;-72
2022/11/21 04:18:18;;;;;;;0.10;0.10;;;;;;;;;;5031739;28;20038;-72
2022/11/21 04:20:44;;;;;;;0.10;0.10;;;;;;;;;;5031811;28;20033;-73
2022/11/21 04:23:10;;;;;;;0.10;0.10;;;;;;;;;;5031925;28;20056;-72
2022/11/21 04:25:36;;;;;;;0.10;0.10;;;;;;;;;;5031806;28;20025;-71
2022/11/21 04:28:02;;;;;;;0.10;0.10;;;;;;;;;;5031639;28;20380;-72
2022/11/21 04:30:29;;;;;;;0.10;0.10;;;;;;;;;;5031396;28;20112;-72
2022/11/21 04:32:55;;;;;;;0.10;0.10;;;;;;;;;;5046606;28;20461;-71
2022/11/21 04:35:22;;;;;;;0.20;0.20;;;;;;;;;;5047084;28;20091;-71
2022/11/21 04:37:48;;;;;;;0.20;0.20;;;;;;;;;;5031877;28;20119;-71
2022/11/21 04:40:14;;;;;;;0.10;0.10;;;;;;;;;;5031593;28;20485;-73
2022/11/21 04:42:40;;;;;;;0.10;0.10;;;;;;;;;;5031397;28;20026;-73
2022/11/21 04:45:06;;;;;;;0.13;0.13;;;;;;;;;;5031672;28;20024;-71
2022/11/21 04:47:35;;;;;;;0.10;0.10;;;;;;;;;;5030732;28;20024;-71
2022/11/21 04:50:01;;;;;;;0.20;0.20;;;;;;;;;;5046309;28;20033;-72
2022/11/21 04:52:27;;;;;;;0.55;0.55;;;;;;;;;;5030490;28;20520;-71
2022/11/21 04:54:52;;;;;;;0.50;0.50;;;;;;;;;;5031217;28;20064;-73
2022/11/21 04:57:18;;;;;;;0.10;0.10;;;;;;;;;;5046776;28;20041;-72
2022/11/21 04:59:43;;;;;;;0.10;0.10;;;;;;;;;;5031750;28;20025;-74
2022/11/21 05:02:10;;;;;;;0.10;0.10;;;;;;;;;;5030104;28;20091;-72
2022/11/21 05:04:36;;;;;;;0.50;0.50;;;;;;;;;;5031377;28;20026;-70
2022/11/21 05:07:02;;;;;;;0.10;0.10;;;;;;;;;;5029970;28;20396;-71
2022/11/21 05:09:27;;;;;;;0.10;0.10;;;;;;;;;;5030857;28;20025;-72
2022/11/21 05:14:37;;;;;;;0.10;0.10;;;;;;;;;;5031288;28;20060;-72
2022/11/21 05:17:03;;;;;;;0.10;0.10;;;;;;;;;;5029675;28;20068;-72
2022/11/21 05:19:29;;;;;;;0.10;0.10;;;;;;;;;;5030742;28;20021;-72
2022/11/21 05:21:55;;;;;;;0.10;0.10;;;;;;;;;;5030335;28;20116;-72
2022/11/21 05:24:21;;;;;;;0.10;0.10;;;;;;;;;;5029359;28;20049;-74
2022/11/21 05:26:47;;;;;;;0.10;0.10;;;;;;;;;;5031039;28;20033;-73
2022/11/21 05:29:13;;;;;;;0.10;0.10;;;;;;;;;;5030760;28;20696;-73
2022/11/21 05:31:39;;;;;;;0.10;0.10;;;;;;;;;;5029404;28;20358;-73
2022/11/21 05:34:05;;;;;;;0.13;0.13;;;;;;;;;;5045559;28;20037;-73
2022/11/21 05:36:31;;;;;;;0.10;0.10;;;;;;;;;;5030705;28;20033;-72
2022/11/21 05:38:57;;;;;;;0.10;0.10;;;;;;;;;;5030416;28;20044;-72
2022/11/21 05:41:23;;;;;;;0.30;0.30;;;;;;;;;;5029264;28;20018;-73
2022/11/21 05:43:49;;;;;;;0.10;0.10;;;;;;;;;;5030278;28;20041;-72
2022/11/21 05:46:16;;;;;;;0.10;0.10;;;;;;;;;;5027871;28;20029;-73
2022/11/21 05:48:42;;;;;;;0.35;0.35;;;;;;;;;;5010286;28;20385;-70
2022/11/21 05:51:08;;;;;;;0.28;0.28;;;;;;;;;;5019201;28;20492;-71
2022/11/21 05:53:34;;;;;;;0.10;0.10;;;;;;;;;;5028913;28;20052;-71
2022/11/21 05:56:04;;;;;;;0.10;0.10;;;;;;;;;;5030225;28;20041;-70
2022/11/21 05:58:30;;;;;;;0.10;0.10;;;;;;;;;;5029635;28;20033;-71
2022/11/21 06:00:57;;;;;;;0.10;0.10;;;;;;;;;;5029365;28;20044;-70
2022/11/21 06:03:26;;;;;;;0.20;0.20;;;;;;;;;;5028773;28;20052;-70
2022/11/21 06:05:57;;;;;;;0.10;0.10;;;;;;;;;;5029372;28;20373;-71
2022/11/21 06:08:23;;;;;;;0.20;0.20;;;;;;;;;;5028677;28;20521;-71
2022/11/21 06:10:48;;;;;;;0.10;0.10;;;;;;;;;;5028886;28;20100;-70
2022/11/21 06:13:23;;;;;;;0.10;0.10;;;;;;;;;;5026832;28;20017;-72
2022/11/21 06:16:09;;;;;;;0.20;0.20;;;;;;;;;;5021358;28;20088;-73
2022/11/21 06:18:36;;;;;;;0.10;0.10;;;;;;;;;;5026241;28;20073;-73
2022/11/21 06:21:03;;;;;;;0.10;0.10;;;;;;;;;;5029603;28;20041;-73
2022/11/21 06:23:29;;;;;;;0.10;0.10;;;;;;;;;;5028951;28;20152;-72
2022/11/21 06:25:55;;;;;;;0.10;0.10;;;;;;;;;;5029461;28;20080;-72
2022/11/21 06:28:22;;;;;;;0.30;0.30;;;;;;;;;;5029364;28;20108;-72
2022/11/21 06:30:50;;;;;;;0.10;0.10;;;;;;;;;;5029157;28;20113;-73
2022/11/21 06:33:17;;;;;;;0.30;0.30;;;;;;;;;;5028943;28;20052;-73
2022/11/21 06:35:43;;;;;;;0.20;0.20;;;;;;;;;;5028938;28;20865;-73
2022/11/21 06:38:08;;;;;;;0.10;0.10;;;;;;;;;;5029173;28;20036;-72
2022/11/21 06:40:34;;;;;;;0.10;0.10;;;;;;;;;;5029731;28;20040;-72
2022/11/21 06:43:00;;;;;;;0.10;0.10;;;;;;;;;;5029436;28;20077;-72
2022/11/21 06:45:26;;;;;;;0.10;0.10;;;;;;;;;;5030043;28;20034;-72
2022/11/21 06:47:52;;;;;;;0.13;0.13;;;;;;;;;;5029218;28;20036;-72
2022/11/21 06:50:17;;;;;;;0.10;0.10;;;;;;;;;;5028214;28;20036;-72
2022/11/21 06:52:43;;;;;;;0.20;0.20;;;;;;;;;;5029713;28;20044;-72
2022/11/21 06:55:09;;;;;;;0.20;0.20;;;;;;;;;;5028753;28;20480;-72
2022/11/21 06:57:35;;;;;;;0.30;0.30;;;;;;;;;;5025726;28;20028;-72
2022/11/21 07:00:01;;;;;;;0.10;0.10;;;;;;;;;;5024654;28;20049;-72
2022/11/21 07:02:27;;;;;;;0.10;0.10;;;;;;;;;;5028226;28;20497;-72
2022/11/21 07:04:53;;;;;;;0.10;0.10;;;;;;;;;;5029275;28;20481;-73
2022/11/21 07:07:18;;;;;;;0.10;0.10;;;;;;;;;;5029241;28;20081;-71
2022/11/21 07:09:46;;;;;;;0.10;0.10;;;;;;;;;;5043270;28;20541;-73
2022/11/21 07:14:55;;;;;;;0.30;0.30;;;;;;;;;;5029669;28;20029;-73
2022/11/21 07:17:21;;;;;;;0.20;0.20;;;;;;;;;;5028939;28;20018;-73
2022/11/21 07:19:47;;;;;;;0.10;0.10;;;;;;;;;;5029077;28;20494;-73
2022/11/21 07:22:13;;;;;;;0.20;0.20;;;;;;;;;;5027139;28;20084;-72
2022/11/21 07:24:39;;;;;;;0.20;0.20;;;;;;;;;;5028866;28;20495;-72
2022/11/21 07:27:05;;;;;;;0.68;0.68;;;;;;;;;;5029304;28;20026;-73
2022/11/21 07:29:30;;;;;;;0.10;0.10;;;;;;;;;;5028894;28;20028;-73
2022/11/21 07:31:56;;;;;;;12.77;11.98;;;;;;;;;;5028677;28;20039;-74
2022/11/21 07:34:21;;;;;;;0.20;0.20;;;;;;;;;;5028185;28;20033;-73
2022/11/21 07:36:47;;;;;;;0.10;0.10;;;;;;;;;;5028158;28;20033;-74
2022/11/21 07:39:13;;;;;;;0.10;0.10;;;;;;;;;;5029129;28;20493;-73
2022/11/21 07:41:39;;;;;;;0.20;0.20;;;;;;;;;;5028857;28;20030;-72
2022/11/21 07:44:05;;;;;;;0.10;0.10;;;;;;;;;;5029020;28;20110;-73
2022/11/21 07:46:31;;;;;;;0.10;0.10;;;;;;;;;;5028260;28;20485;-74
2022/11/21 07:48:56;;;;;;;0.10;0.10;;;;;;;;;;5047606;28;20033;-71
2022/11/21 07:51:22;;;;;;;0.10;0.10;;;;;;;;;;5047486;28;20032;-73
2022/11/21 07:53:48;;;;;;;0.10;0.10;;;;;;;;;;5032124;28;20025;-72
2022/11/21 07:56:14;;;;;;;0.10;0.10;;;;;;;;;;5032155;28;20021;-72
2022/11/21 07:58:40;;;;;;;0.10;0.10;;;;;;;;;;5032514;28;20380;-71
2022/11/21 08:01:06;;;;;;;0.10;0.10;;;;;;;;;;5029425;28;20481;-71
2022/11/21 08:03:33;;;;;;;0.10;0.10;;;;;;;;;;5031421;28;20421;-71
2022/11/21 08:06:03;;;;;;;0.10;0.10;;;;;;;;;;5047485;28;20566;-72
2022/11/21 08:08:29;;;;;;;0.40;0.40;;;;;;;;;;5031448;28;20021;-71
2022/11/21 08:10:55;;;;;;;0.10;0.10;;;;;;;;;;5030355;28;20458;-72
2022/11/21 08:13:21;;;;;;;0.38;0.38;;;;;;;;;;5030827;28;20028;-72
2022/11/21 08:15:47;;;;;;;0.10;0.10;;;;;;;;;;5031977;28;20037;-72
2022/11/21 08:18:13;;;;;;;0.10;0.10;;;;;;;;;;5031774;28;20381;-71
2022/11/21 08:20:39;;;;;;;0.10;0.10;;;;;;;;;;5045359;28;20068;-72
2022/11/21 08:23:06;;;;;;;0.10;0.10;;;;;;;;;;5031980;28;20071;-72
2022/11/21 08:25:36;;;;;;;0.10;0.10;;;;;;;;;;5028809;28;20033;-71
2022/11/21 08:28:02;;;;;;;0.10;0.10;;;;;;;;;;5031458;28;20513;-71
2022/11/21 08:30:28;;;;;;;0.10;0.10;;;;;;;;;;5031449;28;20025;-72
2022/11/21 08:32:56;;;;;;;0.10;0.10;;;;;;;;;;5030210;28;20031;-72
2022/11/21 08:35:22;;;;;;;0.10;0.10;;;;;;;;;;5027531;28;20025;-72
2022/11/21 08:37:48;;;;;;;0.35;0.35;;;;;;;;;;5030220;28;20038;-72
2022/11/21 08:40:14;;;;;;;0.10;0.10;;;;;;;;;;5031192;28;20168;-71
2022/11/21 08:42:39;;;;;;;0.10;0.10;;;;;;;;;;5030537;28;20029;-71
2022/11/21 08:45:05;;;;;;;0.10;0.10;;;;;;;;;;5030416;28;20083;-72
2022/11/21 08:47:34;;;;;;;0.10;0.10;;;;;;;;;;5028460;28;20025;-72
2022/11/21 08:50:00;;;;;;;0.20;0.20;;;;;;;;;;5030371;28;20025;-72
2022/11/21 08:52:25;;;;;;;0.28;0.28;;;;;;;;;;5029588;28;20040;-72
2022/11/21 08:54:51;;;;;;;0.13;0.13;;;;;;;;;;5031211;28;20108;-71
2022/11/21 08:57:17;;;;;;;0.17;0.17;;;;;;;;;;5026372;28;20026;-72
2022/11/21 08:59:43;;;;;;;0.10;0.10;;;;;;;;;;5030938;28;20025;-72
2022/11/21 09:02:09;;;;;;;0.20;0.20;;;;;;;;;;5029552;28;20033;-72
2022/11/21 09:04:35;;;;;;;0.20;0.20;;;;;;;;;;5030079;28;20044;-71
2022/11/21 09:07:02;;;;;;;0.13;0.13;;;;;;;;;;5029012;28;20136;-72
2022/11/21 09:09:28;;;;;;;0.20;0.20;;;;;;;;;;5030856;28;20043;-72
2022/11/21 09:11:54;;;;;;;0.20;0.20;;;;;;;;;;5030719;28;20096;-72
2022/11/21 09:19:48;;;;;;;0.20;0.20;;;;;;;;;;5030646;28;20117;-73
2022/11/21 09:22:14;;;;;;;0.20;0.20;;;;;;;;;;5029638;28;20100;-72
2022/11/21 09:24:40;;;;;;;0.20;0.20;;;;;;;;;;5030475;28;20091;-72
2022/11/21 09:27:05;;;;;;;0.20;0.20;;;;;;;;;;5029375;28;20022;-72
2022/11/21 09:29:31;;;;;;;0.20;0.20;;;;;;;;;;5029931;28;20033;-72
2022/11/21 09:31:57;;;;;;;0.60;0.60;;;;;;;;;;5030418;28;20038;-73
2022/11/21 09:34:23;;;;;;;0.20;0.20;;;;;;;;;;5029850;28;20104;-73
2022/11/21 09:36:49;;;;;;;0.13;0.13;;;;;;;;;;5030028;28;20022;-73
2022/11/21 09:39:16;;;;;;;0.20;0.20;;;;;;;;;;5028053;28;20036;-72
2022/11/21 09:42:00;;;;;;;0.20;0.20;;;;;;;;;;5024703;28;20160;-71
2022/11/21 09:44:35;;;;;;;0.22;0.22;;;;;;;;;;5012718;28;20057;-71
2022/11/21 09:47:21;;;;;;;0.20;0.20;;;;;;;;;;5030537;28;20025;-72
2022/11/21 09:49:51;;;;;;;0.20;0.20;;;;;;;;;;5045346;28;20038;-72
2022/11/21 09:52:16;;;;;;;;;;;;;;;;;;5026693;28;20029;-72
2022/11/21 09:54:55;;;;;;;0.20;0.20;;;;;;;;;;5040780;28;19909;-72
2022/11/21 09:57:22;;;;;;;0.45;0.32;;;;;;;;;;5025920;28;20033;-72
2022/11/21 09:59:50;;;;;;;0.20;0.20;;;;;;;;;;5026459;28;20029;-73
2022/11/21 10:02:18;;;;;;;0.15;0.15;;;;;;;;;;5029482;28;20029;-71
2022/11/21 10:04:44;;;;;;;0.22;0.22;;;;;;;;;;5028859;28;20037;-71
2022/11/21 10:07:13;;;;;;;0.35;0.32;;;;;;;;;;5027959;28;20041;-71
2022/11/21 10:09:58;;;;;;;0.35;0.32;;;;;;;;;;5028717;28;20045;-73
2022/11/21 10:12:44;;;;;;;0.20;0.20;;;;;;;;;;5029592;28;20030;-73
2022/11/21 10:15:25;;;;;;;0.20;0.20;;;;;;;;;;5028394;28;20037;-74
2022/11/21 10:18:00;;;;;;;0.20;0.20;;;;;;;;;;5027716;28;20029;-75
2022/11/21 10:20:29;;;;;;;0.20;0.20;;;;;;;;;;5027480;28;20483;-75
2022/11/21 10:23:09;;;;;;;0.30;0.30;;;;;;;;;;5027670;28;20115;-75
2022/11/21 10:25:38;;;;;;;0.20;0.20;;;;;;;;;;5025081;28;20275;-76
2022/11/21 10:28:04;;;;;;;0.30;0.30;;;;;;;;;;5025553;28;20036;-75
2022/11/21 10:30:30;;;;;;;0.30;0.30;;;;;;;;;;5026219;28;20017;-75
2022/11/21 10:33:00;;;;;;;0.20;0.20;;;;;;;;;;5025181;28;20084;-76
2022/11/21 10:35:38;;;;;;;0.10;0.10;;;;;;;;;;5017438;28;20112;-74
2022/11/21 10:38:15;;;;;;;0.20;0.20;;;;;;;;;;5025756;28;20029;-75
2022/11/21 10:40:53;;;;;;;0.20;0.20;;;;;;;;;;5026691;28;20022;-76
2022/11/21 10:46:09;;;;;;;0.40;0.40;;;;;;;;;;5027250;28;20029;-75
2022/11/21 10:48:35;;;;;;;0.20;0.20;;;;;;;;;;5027292;28;20095;-76
2022/11/21 10:51:05;;;;;;;0.20;0.20;;;;;;;;;;5042902;28;20030;-76
2022/11/21 10:56:18;;;;;;;0.35;0.35;;;;;;;;;;5027193;28;20048;-75
2022/11/21 10:58:48;;;;;;;0.20;0.20;;;;;;;;;;5026582;28;20040;-75
2022/11/21 11:01:25;;;;;;;0.20;0.20;;;;;;;;;;5026389;28;20025;-75
2022/11/21 11:04:16;;;;;;;0.20;0.20;;;;;;;;;;5027111;28;20039;-75
2022/11/21 11:06:43;;;;;;;0.73;0.55;;;;;;;;;;5026578;28;20069;-75
2022/11/21 11:09:27;;;;;;;0.20;0.20;;;;;;;;;;5027050;28;20045;-76
2022/11/21 11:12:13;;;;;;;0.20;0.20;;;;;;;;;;5023562;28;20109;-77
2022/11/21 11:14:39;;;;;;;0.30;0.30;;;;;;;;;;5026897;28;20334;-76
2022/11/21 11:17:05;;;;;;;0.20;0.20;;;;;;;;;;5026644;28;20407;-73
2022/11/21 11:19:31;;;;;;;0.20;0.20;;;;;;;;;;5025524;28;20036;-76
2022/11/21 11:21:56;;;;;;;0.20;0.20;;;;;;;;;;5027233;28;20029;-77
2022/11/21 11:24:27;;;;;;;2.05;0.50;;;;;;;;;;5030541;28;20029;-77
2022/11/21 11:27:00;;;;;;;0.20;0.20;;;;;;;;;;5028491;28;20083;-76
2022/11/21 11:29:28;;;;;;;0.20;0.20;;;;;;;;;;5030484;28;20270;-76
2022/11/21 11:31:54;;;;;;;2.63;0.95;;;;;;;;;;5029449;28;20014;-75
2022/11/21 11:34:21;;;;;;;0.20;0.20;;;;;;;;;;5030713;28;20536;-77
2022/11/21 11:36:52;;;;;;;0.20;0.20;;;;;;;;;;5030103;28;20228;-75
2022/11/21 11:39:33;;;;;;;0.32;0.32;;;;;;;;;;5030511;28;20040;-75
2022/11/21 11:48:00;;;;;;;0.20;0.20;;;;;;;;;;5055628;28;20089;-75
2022/11/21 11:50:30;;;;;;;0.10;0.10;;;;;;;;;;5055058;28;20075;-76
2022/11/21 11:53:18;;;;;;;0.20;0.20;;;;;;;;;;5055511;28;20017;-74
2022/11/21 11:55:52;;;;;;;0.20;0.20;;;;;;;;;;5031519;28;20038;-76
2022/11/21 11:58:21;;;;;;;0.20;0.20;;;;;;;;;;5045346;28;20029;-76
2022/11/21 12:00:51;;;;;;;0.80;0.50;;;;;;;;;;5030164;28;20095;-76
2022/11/21 12:03:23;;;;;;;0.20;0.20;;;;;;;;;;5045741;28;20047;-76
2022/11/21 12:05:58;;;;;;;0.28;0.28;;;;;;;;;;5027884;28;20053;-77
2022/11/21 12:08:44;;;;;;;0.25;0.25;;;;;;;;;;5030143;28;20099;-77
2022/11/21 12:14:06;;;;;;;0.20;0.20;;;;;;;;;;5028777;28;20034;-76
2022/11/21 12:16:32;;;;;;;0.10;0.10;;;;;;;;;;5029660;28;20032;-76
2022/11/21 12:19:11;;;;;;;0.85;0.40;;;;;;;;;;5029768;28;20112;-77
2022/11/21 12:21:38;;;;;;;0.30;0.30;;;;;;;;;;5027471;28;20038;-75
2022/11/21 12:24:08;;;;;;;1.27;0.50;;;;;;;;;;5032102;28;20025;-74
2022/11/21 12:26:45;;;;;;;0.20;0.20;;;;;;;;;;5044568;28;20071;-75
2022/11/21 12:29:29;;;;;;;0.32;0.32;;;;;;;;;;5045078;28;20030;-76
2022/11/21 12:32:04;;;;;;;2.10;0.43;;;;;;;;;;5026541;28;20026;-76
2022/11/21 12:34:30;;;;;;;0.32;0.32;;;;;;;;;;5025673;28;20030;-75
2022/11/21 12:37:14;;;;;;;0.28;0.28;;;;;;;;;;5025621;28;20068;-76
2022/11/21 12:39:40;;;;;;;0.20;0.20;;;;;;;;;;5029879;28;20034;-75
2022/11/21 12:45:03;;;;;;;0.20;0.20;;;;;;;;;;5028998;28;20045;-76
2022/11/21 12:56:25;;;;;;;0.20;0.20;;;;;;;;;;5029055;28;20397;-76
2022/11/21 12:58:52;;;;;;;2.58;1.00;;;;;;;;;;5029326;28;20105;-77
2022/11/21 13:01:23;;;;;;;0.20;0.20;;;;;;;;;;5027405;28;20120;-76
2022/11/21 13:04:10;;;;;;;0.20;0.20;;;;;;;;;;5029226;28;20055;-76
2022/11/21 13:06:39;;;;;;;0.65;0.45;;;;;;;;;;5023021;28;20054;-76
2022/11/21 13:09:07;;;;;;;0.52;0.52;;;;;;;;;;5026889;28;20533;-76
2022/11/21 13:14:21;;;;;;;0.20;0.20;;;;;;;;;;5017657;28;20033;-76
2022/11/21 13:16:53;;;;;;;0.20;0.20;;;;;;;;;;5028109;28;20016;-77
2022/11/21 13:19:19;;;;;;;0.20;0.20;;;;;;;;;;5028712;28;20036;-76
2022/11/21 13:21:49;;;;;;;0.20;0.20;;;;;;;;;;5042717;28;20037;-75
2022/11/21 13:24:33;;;;;;;0.20;0.20;;;;;;;;;;5028503;28;20037;-77
2022/11/21 13:26:59;;;;;;;0.20;0.20;;;;;;;;;;5028877;28;20589;-74
2022/11/21 13:29:25;;;;;;;0.20;0.20;;;;;;;;;;5028204;28;20087;-74
2022/11/21 13:31:51;;;;;;;0.20;0.20;;;;;;;;;;5028678;28;20044;-75
2022/11/21 13:34:36;;;;;;;0.20;0.20;;;;;;;;;;5025099;28;20097;-77
2022/11/21 13:37:04;;;;;;;0.20;0.20;;;;;;;;;;5023385;28;20469;-77
2022/11/21 13:39:31;;;;;;;0.30;0.30;;;;;;;;;;5022773;28;20108;-76
2022/11/21 13:44:41;;;;;;;0.50;0.30;;;;;;;;;;5015015;28;20045;-77
2022/11/21 13:47:11;;;;;;;0.20;0.20;;;;;;;;;;5026635;28;20013;-75
2022/11/21 13:49:36;;;;;;;0.20;0.20;;;;;;;;;;5026332;28;20199;-75
2022/11/21 13:52:22;;;;;;;0.20;0.20;;;;;;;;;;5027226;28;20048;-75
2022/11/21 13:55:03;;;;;;;0.20;0.20;;;;;;;;;;5023779;28;20053;-75
2022/11/21 13:57:34;;;;;;;0.20;0.20;;;;;;;;;;5026452;28;20022;-77
2022/11/21 14:00:00;;;;;;;0.20;0.20;;;;;;;;;;5026299;28;20033;-77
2022/11/21 14:02:46;;;;;;;0.17;0.17;;;;;;;;;;5026270;28;20033;-75
2022/11/21 14:05:17;;;;;;;0.30;0.30;;;;;;;;;;5021973;28;20140;-76
2022/11/21 14:07:43;;;;;;;0.10;0.10;;;;;;;;;;5026002;28;20549;-75
2022/11/21 14:10:24;;;;;;;0.30;0.30;;;;;;;;;;5025826;28;20068;-75
2022/11/21 14:12:52;;;;;;;0.93;0.38;;;;;;;;;;5027446;28;20432;-76
2022/11/21 14:15:31;;;;;;;0.10;0.10;;;;;;;;;;5027981;28;20029;-76
2022/11/21 14:17:57;;;;;;;0.13;0.13;;;;;;;;;;5026558;28;20065;-79
2022/11/21 14:20:25;;;;;;;1.85;0.30;;;;;;;;;;5027590;28;20071;-76
2022/11/21 14:23:05;;;;;;;0.10;0.10;;;;;;;;;;5027495;28;20567;-79
2022/11/21 14:25:39;;;;;;;0.52;0.52;;;;;;;;;;5028333;28;20048;-76
2022/11/21 14:28:14;;;;;;;0.13;0.13;;;;;;;;;;5027672;28;20021;-75
2022/11/21 14:30:41;;;;;;;0.20;0.20;;;;;;;;;;5027145;28;20669;-77
2022/11/21 14:33:36;;;;;;;0.20;0.20;;;;;;;;;;5027921;28;20535;-77
2022/11/21 14:36:14;;;;;;;0.20;0.20;;;;;;;;;;5026635;28;20038;-76
2022/11/21 14:38:59;;;;;;;0.10;0.10;;;;;;;;;;5027602;28;20599;-76
2022/11/21 14:41:25;;;;;;;0.20;0.20;;;;;;;;;;5027457;28;20065;-77
2022/11/21 14:43:57;;;;;;;0.20;0.20;;;;;;;;;;5027559;28;20065;-76
2022/11/21 14:46:31;;;;;;;0.20;0.20;;;;;;;;;;5027115;28;20129;-76
2022/11/21 14:49:08;;;;;;;0.17;0.17;;;;;;;;;;5027147;28;20030;-77
2022/11/21 14:51:35;;;;;;;0.20;0.20;;;;;;;;;;5027542;28;20370;-76
2022/11/21 14:54:01;;;;;;;0.20;0.20;;;;;;;;;;5023769;28;20037;-78
2022/11/21 14:56:28;;;;;;;0.10;0.10;;;;;;;;;;5023042;28;20018;-78
2022/11/21 14:58:56;;;;;;;0.20;0.20;;;;;;;;;;5021538;28;20674;-78
2022/11/21 15:01:23;;;;;;;0.10;0.10;;;;;;;;;;5021624;28;20077;-76
2022/11/21 15:03:59;;;;;;;0.10;0.10;;;;;;;;;;5023261;28;20056;-78
2022/11/21 15:06:25;;;;;;;0.20;0.20;;;;;;;;;;5023721;28;20049;-75
2022/11/21 15:08:53;;;;;;;1.48;1.38;;;;;;;;;;5027287;28;20385;-78
2022/11/21 15:11:19;;;;;;;0.30;0.30;;;;;;;;;;5031043;28;20037;-77
2022/11/21 15:13:47;;;;;;;0.17;0.17;;;;;;;;;;5031196;28;20025;-76
2022/11/21 15:16:14;;;;;;;0.20;0.20;;;;;;;;;;5031043;28;20034;-75
2022/11/21 15:18:40;;;;;;;0.20;0.20;;;;;;;;;;5046476;28;20567;-77
2022/11/21 15:21:06;;;;;;;0.20;0.20;;;;;;;;;;5031023;28;20022;-77
2022/11/21 15:23:33;;;;;;;0.10;0.10;;;;;;;;;;5030336;28;20076;-78
2022/11/21 15:26:00;;;;;;;0.10;0.10;;;;;;;;;;5031013;28;20066;-77
2022/11/21 15:28:25;;;;;;;0.10;0.10;;;;;;;;;;5030187;28;20333;-76
2022/11/21 15:31:24;;;;;;;0.10;0.10;;;;;;;;;;5030001;28;20070;-76
2022/11/21 15:34:00;;;;;;;0.10;0.10;;;;;;;;;;5018559;28;20038;-74